sensor_id;sensor_type;location;lat;lon;timestamp;P1;durP1;ratioP1;P2;durP2;ratioP2
11588;SDS011;5850;51.360;12.362;2024-01-30T00:00:15;7.13;;;5.17;;
11588;SDS011;5850;51.360;12.362;2024-01-30T00:02:43;6.50;;;4.53;;
11588;SDS011;5850;51.360;12.362;2024-01-30T00:05:12;6.30;;;4.90;;
11588;SDS011;5850;51.360;12.362;2024-01-30T00:07:40;8.93;;;5.30;;
11588;SDS011;5850;51.360;12.362;2024-01-30T00:10:08;5.50;;;4.40;;
11588;SDS011;5850;51.360;12.362;2024-01-30T00:12:37;6.43;;;4.50;;
11588;SDS011;5850;51.360;12.362;2024-01-30T00:15:05;5.97;;;4.70;;
11588;SDS011;5850;51.360;12.362;2024-01-30T00:17:36;6.93;;;4.87;;
11588;SDS011;5850;51.360;12.362;2024-01-30T00:20:04;5.83;;;4.50;;
11588;SDS011;5850;51.360;12.362;2024-01-30T00:22:33;7.37;;;5.30;;
11588;SDS011;5850;51.360;12.362;2024-01-30T00:25:01;6.43;;;4.93;;
11588;SDS011;5850;51.360;12.362;2024-01-30T00:27:30;5.37;;;4.33;;
11588;SDS011;5850;51.360;12.362;2024-01-30T00:29:58;5.87;;;4.73;;
11588;SDS011;5850;51.360;12.362;2024-01-30T00:32:27;6.67;;;4.80;;
11588;SDS011;5850;51.360;12.362;2024-01-30T00:34:55;6.60;;;5.03;;
11588;SDS011;5850;51.360;12.362;2024-01-30T00:37:23;6.50;;;4.60;;
11588;SDS011;5850;51.360;12.362;2024-01-30T00:39:51;6.17;;;4.80;;
11588;SDS011;5850;51.360;12.362;2024-01-30T00:42:20;6.50;;;5.00;;
11588;SDS011;5850;51.360;12.362;2024-01-30T00:44:50;6.07;;;4.67;;
11588;SDS011;5850;51.360;12.362;2024-01-30T00:47:18;8.17;;;5.27;;
11588;SDS011;5850;51.360;12.362;2024-01-30T00:49:46;6.37;;;4.87;;
11588;SDS011;5850;51.360;12.362;2024-01-30T00:52:15;6.17;;;4.63;;
11588;SDS011;5850;51.360;12.362;2024-01-30T00:54:43;6.33;;;4.83;;
11588;SDS011;5850;51.360;12.362;2024-01-30T00:57:11;5.60;;;4.63;;
11588;SDS011;5850;51.360;12.362;2024-01-30T00:59:39;7.00;;;5.13;;
11588;SDS011;5850;51.360;12.362;2024-01-30T01:02:08;6.93;;;4.70;;
11588;SDS011;5850;51.360;12.362;2024-01-30T01:04:36;6.40;;;4.67;;
11588;SDS011;5850;51.360;12.362;2024-01-30T01:07:04;4.87;;;4.33;;
11588;SDS011;5850;51.360;12.362;2024-01-30T01:09:32;7.63;;;4.70;;
11588;SDS011;5850;51.360;12.362;2024-01-30T01:12:01;6.83;;;4.13;;
11588;SDS011;5850;51.360;12.362;2024-01-30T01:14:29;6.67;;;4.80;;
11588;SDS011;5850;51.360;12.362;2024-01-30T01:16:57;5.70;;;4.70;;
11588;SDS011;5850;51.360;12.362;2024-01-30T01:19:25;5.57;;;4.30;;
11588;SDS011;5850;51.360;12.362;2024-01-30T01:21:54;5.70;;;4.80;;
11588;SDS011;5850;51.360;12.362;2024-01-30T01:24:23;8.53;;;4.80;;
11588;SDS011;5850;51.360;12.362;2024-01-30T01:26:51;5.63;;;4.67;;
11588;SDS011;5850;51.360;12.362;2024-01-30T01:29:20;4.27;;;3.87;;
11588;SDS011;5850;51.360;12.362;2024-01-30T01:31:55;7.70;;;4.73;;
11588;SDS011;5850;51.360;12.362;2024-01-30T01:34:23;5.17;;;3.67;;
11588;SDS011;5850;51.360;12.362;2024-01-30T01:36:56;5.50;;;4.13;;
11588;SDS011;5850;51.360;12.362;2024-01-30T01:39:24;5.63;;;4.00;;
11588;SDS011;5850;51.360;12.362;2024-01-30T01:41:52;8.20;;;4.63;;
11588;SDS011;5850;51.360;12.362;2024-01-30T01:44:20;5.77;;;4.43;;
11588;SDS011;5850;51.360;12.362;2024-01-30T01:46:48;5.17;;;4.47;;
11588;SDS011;5850;51.360;12.362;2024-01-30T01:49:17;6.90;;;4.33;;
11588;SDS011;5850;51.360;12.362;2024-01-30T01:51:45;5.47;;;4.30;;
11588;SDS011;5850;51.360;12.362;2024-01-30T01:54:15;4.70;;;4.20;;
11588;SDS011;5850;51.360;12.362;2024-01-30T01:56:44;5.27;;;4.30;;
11588;SDS011;5850;51.360;12.362;2024-01-30T01:59:12;4.13;;;3.73;;
11588;SDS011;5850;51.360;12.362;2024-01-30T02:01:40;5.17;;;3.83;;
11588;SDS011;5850;51.360;12.362;2024-01-30T02:04:09;5.20;;;4.30;;
11588;SDS011;5850;51.360;12.362;2024-01-30T02:06:37;5.53;;;3.90;;
11588;SDS011;5850;51.360;12.362;2024-01-30T02:09:06;6.47;;;4.23;;
11588;SDS011;5850;51.360;12.362;2024-01-30T02:11:35;6.37;;;3.93;;
11588;SDS011;5850;51.360;12.362;2024-01-30T02:14:03;6.23;;;3.83;;
11588;SDS011;5850;51.360;12.362;2024-01-30T02:16:32;5.07;;;4.57;;
11588;SDS011;5850;51.360;12.362;2024-01-30T02:19:00;6.50;;;4.13;;
11588;SDS011;5850;51.360;12.362;2024-01-30T02:21:28;4.90;;;4.10;;
11588;SDS011;5850;51.360;12.362;2024-01-30T02:23:56;5.93;;;5.00;;
11588;SDS011;5850;51.360;12.362;2024-01-30T02:26:26;7.13;;;4.37;;
11588;SDS011;5850;51.360;12.362;2024-01-30T02:28:55;6.00;;;4.20;;
11588;SDS011;5850;51.360;12.362;2024-01-30T02:31:24;5.77;;;4.70;;
11588;SDS011;5850;51.360;12.362;2024-01-30T02:33:53;5.07;;;4.20;;
11588;SDS011;5850;51.360;12.362;2024-01-30T02:36:21;7.90;;;4.60;;
11588;SDS011;5850;51.360;12.362;2024-01-30T02:38:49;5.93;;;4.97;;
11588;SDS011;5850;51.360;12.362;2024-01-30T02:41:17;5.30;;;3.90;;
11588;SDS011;5850;51.360;12.362;2024-01-30T02:43:45;5.57;;;4.37;;
11588;SDS011;5850;51.360;12.362;2024-01-30T02:46:13;5.30;;;4.43;;
11588;SDS011;5850;51.360;12.362;2024-01-30T02:48:42;5.13;;;3.80;;
11588;SDS011;5850;51.360;12.362;2024-01-30T02:51:10;5.47;;;4.40;;
11588;SDS011;5850;51.360;12.362;2024-01-30T02:53:38;5.60;;;4.10;;
11588;SDS011;5850;51.360;12.362;2024-01-30T02:56:07;7.67;;;4.20;;
11588;SDS011;5850;51.360;12.362;2024-01-30T02:58:36;7.97;;;4.60;;
11588;SDS011;5850;51.360;12.362;2024-01-30T03:01:04;5.23;;;4.40;;
11588;SDS011;5850;51.360;12.362;2024-01-30T03:03:33;9.60;;;4.10;;
11588;SDS011;5850;51.360;12.362;2024-01-30T03:06:02;4.97;;;4.23;;
11588;SDS011;5850;51.360;12.362;2024-01-30T03:08:30;5.80;;;3.97;;
11588;SDS011;5850;51.360;12.362;2024-01-30T03:11:02;5.57;;;4.60;;
11588;SDS011;5850;51.360;12.362;2024-01-30T03:13:30;5.00;;;4.30;;
11588;SDS011;5850;51.360;12.362;2024-01-30T03:15:58;7.50;;;4.53;;
11588;SDS011;5850;51.360;12.362;2024-01-30T03:18:26;6.43;;;4.50;;
11588;SDS011;5850;51.360;12.362;2024-01-30T03:20:54;5.73;;;3.97;;
11588;SDS011;5850;51.360;12.362;2024-01-30T03:23:23;5.70;;;4.10;;
11588;SDS011;5850;51.360;12.362;2024-01-30T03:25:51;5.83;;;4.10;;
11588;SDS011;5850;51.360;12.362;2024-01-30T03:28:19;6.07;;;4.47;;
11588;SDS011;5850;51.360;12.362;2024-01-30T03:30:47;5.33;;;4.13;;
11588;SDS011;5850;51.360;12.362;2024-01-30T03:33:15;6.33;;;4.57;;
11588;SDS011;5850;51.360;12.362;2024-01-30T03:35:44;8.10;;;4.77;;
11588;SDS011;5850;51.360;12.362;2024-01-30T03:38:12;5.63;;;4.63;;
11588;SDS011;5850;51.360;12.362;2024-01-30T03:40:40;5.63;;;3.97;;
11588;SDS011;5850;51.360;12.362;2024-01-30T03:43:08;6.80;;;4.90;;
11588;SDS011;5850;51.360;12.362;2024-01-30T03:45:36;7.13;;;4.57;;
11588;SDS011;5850;51.360;12.362;2024-01-30T03:48:05;7.27;;;4.33;;
11588;SDS011;5850;51.360;12.362;2024-01-30T03:50:33;7.70;;;4.77;;
11588;SDS011;5850;51.360;12.362;2024-01-30T03:53:01;7.03;;;4.63;;
11588;SDS011;5850;51.360;12.362;2024-01-30T03:55:29;6.40;;;4.60;;
11588;SDS011;5850;51.360;12.362;2024-01-30T03:57:57;5.53;;;4.70;;
11588;SDS011;5850;51.360;12.362;2024-01-30T04:00:26;6.67;;;4.87;;
11588;SDS011;5850;51.360;12.362;2024-01-30T04:02:54;5.37;;;4.17;;
11588;SDS011;5850;51.360;12.362;2024-01-30T04:05:22;7.90;;;5.70;;
11588;SDS011;5850;51.360;12.362;2024-01-30T04:07:50;6.20;;;4.67;;
11588;SDS011;5850;51.360;12.362;2024-01-30T04:10:18;7.53;;;5.20;;
11588;SDS011;5850;51.360;12.362;2024-01-30T04:12:47;7.87;;;4.77;;
11588;SDS011;5850;51.360;12.362;2024-01-30T04:15:15;8.23;;;5.30;;
11588;SDS011;5850;51.360;12.362;2024-01-30T04:17:43;6.83;;;4.97;;
11588;SDS011;5850;51.360;12.362;2024-01-30T04:20:14;6.80;;;4.57;;
11588;SDS011;5850;51.360;12.362;2024-01-30T04:22:45;6.37;;;5.03;;
11588;SDS011;5850;51.360;12.362;2024-01-30T04:25:13;11.40;;;5.73;;
11588;SDS011;5850;51.360;12.362;2024-01-30T04:27:42;7.97;;;5.57;;
11588;SDS011;5850;51.360;12.362;2024-01-30T04:30:10;7.03;;;5.17;;
11588;SDS011;5850;51.360;12.362;2024-01-30T04:32:38;8.20;;;4.53;;
11588;SDS011;5850;51.360;12.362;2024-01-30T04:35:06;7.67;;;5.30;;
11588;SDS011;5850;51.360;12.362;2024-01-30T04:37:37;6.17;;;4.73;;
11588;SDS011;5850;51.360;12.362;2024-01-30T04:40:05;5.90;;;5.30;;
11588;SDS011;5850;51.360;12.362;2024-01-30T04:42:34;8.87;;;5.23;;
11588;SDS011;5850;51.360;12.362;2024-01-30T04:45:02;5.83;;;5.00;;
11588;SDS011;5850;51.360;12.362;2024-01-30T04:47:31;7.40;;;4.90;;
11588;SDS011;5850;51.360;12.362;2024-01-30T04:49:59;7.60;;;5.63;;
11588;SDS011;5850;51.360;12.362;2024-01-30T04:52:27;6.03;;;4.73;;
11588;SDS011;5850;51.360;12.362;2024-01-30T04:54:55;7.57;;;5.10;;
11588;SDS011;5850;51.360;12.362;2024-01-30T04:57:23;7.33;;;4.80;;
11588;SDS011;5850;51.360;12.362;2024-01-30T04:59:52;6.70;;;5.03;;
11588;SDS011;5850;51.360;12.362;2024-01-30T05:02:20;6.90;;;4.83;;
11588;SDS011;5850;51.360;12.362;2024-01-30T05:04:48;6.73;;;5.37;;
11588;SDS011;5850;51.360;12.362;2024-01-30T05:07:16;6.43;;;4.83;;
11588;SDS011;5850;51.360;12.362;2024-01-30T05:09:44;6.73;;;4.90;;
11588;SDS011;5850;51.360;12.362;2024-01-30T05:12:13;7.73;;;5.07;;
11588;SDS011;5850;51.360;12.362;2024-01-30T05:14:41;5.47;;;4.90;;
11588;SDS011;5850;51.360;12.362;2024-01-30T05:17:09;6.97;;;4.87;;
11588;SDS011;5850;51.360;12.362;2024-01-30T05:19:39;7.63;;;5.33;;
11588;SDS011;5850;51.360;12.362;2024-01-30T05:22:07;6.10;;;5.37;;
11588;SDS011;5850;51.360;12.362;2024-01-30T05:24:36;7.03;;;5.10;;
11588;SDS011;5850;51.360;12.362;2024-01-30T05:27:04;7.20;;;4.57;;
11588;SDS011;5850;51.360;12.362;2024-01-30T05:29:32;8.57;;;5.20;;
11588;SDS011;5850;51.360;12.362;2024-01-30T05:32:00;6.13;;;4.80;;
11588;SDS011;5850;51.360;12.362;2024-01-30T05:34:28;6.77;;;4.70;;
11588;SDS011;5850;51.360;12.362;2024-01-30T05:36:56;7.97;;;4.80;;
11588;SDS011;5850;51.360;12.362;2024-01-30T05:39:25;8.60;;;5.00;;
11588;SDS011;5850;51.360;12.362;2024-01-30T05:41:53;6.60;;;5.07;;
11588;SDS011;5850;51.360;12.362;2024-01-30T05:44:21;9.13;;;5.77;;
11588;SDS011;5850;51.360;12.362;2024-01-30T05:46:49;8.00;;;5.70;;
11588;SDS011;5850;51.360;12.362;2024-01-30T05:49:17;7.63;;;5.70;;
11588;SDS011;5850;51.360;12.362;2024-01-30T05:51:46;5.43;;;4.40;;
11588;SDS011;5850;51.360;12.362;2024-01-30T05:54:15;8.40;;;5.63;;
11588;SDS011;5850;51.360;12.362;2024-01-30T05:56:43;7.40;;;5.57;;
11588;SDS011;5850;51.360;12.362;2024-01-30T05:59:11;7.20;;;5.10;;
11588;SDS011;5850;51.360;12.362;2024-01-30T06:01:45;8.17;;;5.57;;
11588;SDS011;5850;51.360;12.362;2024-01-30T06:04:14;6.53;;;4.97;;
11588;SDS011;5850;51.360;12.362;2024-01-30T06:06:42;6.77;;;5.10;;
11588;SDS011;5850;51.360;12.362;2024-01-30T06:09:11;6.23;;;4.83;;
11588;SDS011;5850;51.360;12.362;2024-01-30T06:11:40;9.83;;;5.57;;
11588;SDS011;5850;51.360;12.362;2024-01-30T06:14:08;9.90;;;5.40;;
11588;SDS011;5850;51.360;12.362;2024-01-30T06:16:36;6.20;;;4.93;;
11588;SDS011;5850;51.360;12.362;2024-01-30T06:19:04;8.33;;;5.40;;
11588;SDS011;5850;51.360;12.362;2024-01-30T06:21:33;10.73;;;5.17;;
11588;SDS011;5850;51.360;12.362;2024-01-30T06:24:02;11.93;;;6.00;;
11588;SDS011;5850;51.360;12.362;2024-01-30T06:26:31;7.67;;;5.67;;
11588;SDS011;5850;51.360;12.362;2024-01-30T06:28:59;11.10;;;5.57;;
11588;SDS011;5850;51.360;12.362;2024-01-30T06:31:27;8.27;;;5.53;;
11588;SDS011;5850;51.360;12.362;2024-01-30T06:33:55;8.53;;;6.10;;
11588;SDS011;5850;51.360;12.362;2024-01-30T06:36:23;8.70;;;5.80;;
11588;SDS011;5850;51.360;12.362;2024-01-30T06:38:52;8.63;;;6.77;;
11588;SDS011;5850;51.360;12.362;2024-01-30T06:41:20;8.70;;;5.97;;
11588;SDS011;5850;51.360;12.362;2024-01-30T06:43:48;8.03;;;5.50;;
11588;SDS011;5850;51.360;12.362;2024-01-30T06:46:16;6.87;;;5.13;;
11588;SDS011;5850;51.360;12.362;2024-01-30T06:48:44;7.27;;;4.97;;
11588;SDS011;5850;51.360;12.362;2024-01-30T06:51:12;9.07;;;5.77;;
11588;SDS011;5850;51.360;12.362;2024-01-30T06:53:43;10.20;;;6.07;;
11588;SDS011;5850;51.360;12.362;2024-01-30T06:56:11;7.07;;;5.40;;
11588;SDS011;5850;51.360;12.362;2024-01-30T06:58:39;8.37;;;5.70;;
11588;SDS011;5850;51.360;12.362;2024-01-30T07:01:07;8.30;;;5.40;;
11588;SDS011;5850;51.360;12.362;2024-01-30T07:03:36;6.47;;;5.07;;
11588;SDS011;5850;51.360;12.362;2024-01-30T07:06:04;6.80;;;5.03;;
11588;SDS011;5850;51.360;12.362;2024-01-30T07:08:32;9.00;;;5.43;;
11588;SDS011;5850;51.360;12.362;2024-01-30T07:11:00;9.53;;;6.00;;
11588;SDS011;5850;51.360;12.362;2024-01-30T07:13:28;8.07;;;5.63;;
11588;SDS011;5850;51.360;12.362;2024-01-30T07:15:56;8.83;;;5.90;;
11588;SDS011;5850;51.360;12.362;2024-01-30T07:18:25;8.87;;;5.47;;
11588;SDS011;5850;51.360;12.362;2024-01-30T07:20:53;8.20;;;5.93;;
11588;SDS011;5850;51.360;12.362;2024-01-30T07:23:21;7.43;;;5.90;;
11588;SDS011;5850;51.360;12.362;2024-01-30T07:25:49;8.27;;;5.53;;
11588;SDS011;5850;51.360;12.362;2024-01-30T07:28:17;6.80;;;5.13;;
11588;SDS011;5850;51.360;12.362;2024-01-30T07:30:46;6.50;;;5.50;;
11588;SDS011;5850;51.360;12.362;2024-01-30T07:33:15;7.17;;;5.27;;
11588;SDS011;5850;51.360;12.362;2024-01-30T07:35:45;9.13;;;5.57;;
11588;SDS011;5850;51.360;12.362;2024-01-30T07:38:13;6.60;;;5.37;;
11588;SDS011;5850;51.360;12.362;2024-01-30T07:40:41;7.30;;;5.83;;
11588;SDS011;5850;51.360;12.362;2024-01-30T07:43:09;7.77;;;6.13;;
11588;SDS011;5850;51.360;12.362;2024-01-30T07:45:37;6.83;;;5.47;;
11588;SDS011;5850;51.360;12.362;2024-01-30T07:48:06;7.60;;;5.67;;
11588;SDS011;5850;51.360;12.362;2024-01-30T07:50:34;9.40;;;5.87;;
11588;SDS011;5850;51.360;12.362;2024-01-30T07:53:02;7.87;;;5.70;;
11588;SDS011;5850;51.360;12.362;2024-01-30T07:55:30;9.20;;;5.83;;
11588;SDS011;5850;51.360;12.362;2024-01-30T07:57:59;11.73;;;6.27;;
11588;SDS011;5850;51.360;12.362;2024-01-30T08:00:27;8.33;;;5.67;;
11588;SDS011;5850;51.360;12.362;2024-01-30T08:02:56;11.87;;;5.33;;
11588;SDS011;5850;51.360;12.362;2024-01-30T08:05:25;7.20;;;5.30;;
11588;SDS011;5850;51.360;12.362;2024-01-30T08:07:53;9.03;;;5.63;;
11588;SDS011;5850;51.360;12.362;2024-01-30T08:10:21;8.33;;;5.80;;
11588;SDS011;5850;51.360;12.362;2024-01-30T08:12:50;10.27;;;5.67;;
11588;SDS011;5850;51.360;12.362;2024-01-30T08:15:18;7.10;;;5.43;;
11588;SDS011;5850;51.360;12.362;2024-01-30T08:17:46;9.27;;;5.63;;
11588;SDS011;5850;51.360;12.362;2024-01-30T08:20:14;10.37;;;6.43;;
11588;SDS011;5850;51.360;12.362;2024-01-30T08:22:43;6.33;;;5.23;;
11588;SDS011;5850;51.360;12.362;2024-01-30T08:25:11;7.93;;;5.77;;
11588;SDS011;5850;51.360;12.362;2024-01-30T08:27:39;7.50;;;5.60;;
11588;SDS011;5850;51.360;12.362;2024-01-30T08:30:08;7.63;;;5.57;;
11588;SDS011;5850;51.360;12.362;2024-01-30T08:32:36;6.17;;;4.90;;
11588;SDS011;5850;51.360;12.362;2024-01-30T08:35:04;6.90;;;5.07;;
11588;SDS011;5850;51.360;12.362;2024-01-30T08:37:33;6.87;;;5.40;;
11588;SDS011;5850;51.360;12.362;2024-01-30T08:40:01;8.13;;;5.53;;
11588;SDS011;5850;51.360;12.362;2024-01-30T08:42:31;7.37;;;5.73;;
11588;SDS011;5850;51.360;12.362;2024-01-30T08:44:59;7.63;;;5.60;;
11588;SDS011;5850;51.360;12.362;2024-01-30T08:47:27;10.43;;;5.77;;
11588;SDS011;5850;51.360;12.362;2024-01-30T08:49:55;9.20;;;5.90;;
11588;SDS011;5850;51.360;12.362;2024-01-30T08:52:24;7.07;;;5.43;;
11588;SDS011;5850;51.360;12.362;2024-01-30T08:54:52;7.93;;;5.17;;
11588;SDS011;5850;51.360;12.362;2024-01-30T08:57:21;10.90;;;5.93;;
11588;SDS011;5850;51.360;12.362;2024-01-30T08:59:49;7.13;;;5.27;;
11588;SDS011;5850;51.360;12.362;2024-01-30T09:02:17;7.53;;;4.57;;
11588;SDS011;5850;51.360;12.362;2024-01-30T09:04:46;6.67;;;4.90;;
11588;SDS011;5850;51.360;12.362;2024-01-30T09:07:14;9.93;;;5.03;;
11588;SDS011;5850;51.360;12.362;2024-01-30T09:09:43;6.70;;;5.53;;
11588;SDS011;5850;51.360;12.362;2024-01-30T09:12:12;8.97;;;6.03;;
11588;SDS011;5850;51.360;12.362;2024-01-30T09:14:40;9.23;;;6.13;;
11588;SDS011;5850;51.360;12.362;2024-01-30T09:17:09;6.07;;;4.90;;
11588;SDS011;5850;51.360;12.362;2024-01-30T09:19:37;8.33;;;5.43;;
11588;SDS011;5850;51.360;12.362;2024-01-30T09:22:06;9.60;;;5.70;;
11588;SDS011;5850;51.360;12.362;2024-01-30T09:24:33;6.00;;;5.37;;
11588;SDS011;5850;51.360;12.362;2024-01-30T09:27:02;10.57;;;5.60;;
11588;SDS011;5850;51.360;12.362;2024-01-30T09:29:30;6.80;;;5.90;;
11588;SDS011;5850;51.360;12.362;2024-01-30T09:32:00;6.97;;;5.33;;
11588;SDS011;5850;51.360;12.362;2024-01-30T09:34:28;6.50;;;5.17;;
11588;SDS011;5850;51.360;12.362;2024-01-30T09:36:58;10.03;;;6.20;;
11588;SDS011;5850;51.360;12.362;2024-01-30T09:39:26;7.73;;;5.50;;
11588;SDS011;5850;51.360;12.362;2024-01-30T09:44:41;8.33;;;5.63;;
11588;SDS011;5850;51.360;12.362;2024-01-30T09:47:11;10.03;;;6.20;;
11588;SDS011;5850;51.360;12.362;2024-01-30T09:49:40;7.70;;;5.57;;
11588;SDS011;5850;51.360;12.362;2024-01-30T09:52:10;7.50;;;5.53;;
11588;SDS011;5850;51.360;12.362;2024-01-30T09:54:39;9.60;;;6.23;;
11588;SDS011;5850;51.360;12.362;2024-01-30T09:57:08;8.03;;;5.60;;
11588;SDS011;5850;51.360;12.362;2024-01-30T09:59:37;11.07;;;6.23;;
11588;SDS011;5850;51.360;12.362;2024-01-30T10:02:05;6.73;;;5.43;;
11588;SDS011;5850;51.360;12.362;2024-01-30T10:04:33;9.53;;;5.73;;
11588;SDS011;5850;51.360;12.362;2024-01-30T10:07:02;9.87;;;5.50;;
11588;SDS011;5850;51.360;12.362;2024-01-30T10:09:33;8.77;;;5.60;;
11588;SDS011;5850;51.360;12.362;2024-01-30T10:12:01;5.73;;;4.97;;
11588;SDS011;5850;51.360;12.362;2024-01-30T10:14:30;5.23;;;4.47;;
11588;SDS011;5850;51.360;12.362;2024-01-30T10:16:58;7.50;;;5.50;;
11588;SDS011;5850;51.360;12.362;2024-01-30T10:19:29;8.53;;;5.47;;
11588;SDS011;5850;51.360;12.362;2024-01-30T10:21:57;7.37;;;5.60;;
11588;SDS011;5850;51.360;12.362;2024-01-30T10:24:27;7.67;;;5.20;;
11588;SDS011;5850;51.360;12.362;2024-01-30T10:26:56;6.63;;;5.20;;
11588;SDS011;5850;51.360;12.362;2024-01-30T10:29:25;9.83;;;6.07;;
11588;SDS011;5850;51.360;12.362;2024-01-30T10:31:59;8.37;;;5.80;;
11588;SDS011;5850;51.360;12.362;2024-01-30T10:34:27;11.33;;;5.07;;
11588;SDS011;5850;51.360;12.362;2024-01-30T10:36:59;7.23;;;5.80;;
11588;SDS011;5850;51.360;12.362;2024-01-30T10:39:39;8.73;;;5.27;;
11588;SDS011;5850;51.360;12.362;2024-01-30T10:42:13;7.13;;;5.70;;
11588;SDS011;5850;51.360;12.362;2024-01-30T10:44:59;7.30;;;5.53;;
11588;SDS011;5850;51.360;12.362;2024-01-30T10:47:34;6.63;;;4.93;;
11588;SDS011;5850;51.360;12.362;2024-01-30T10:50:03;7.40;;;5.50;;
11588;SDS011;5850;51.360;12.362;2024-01-30T10:52:31;7.03;;;5.63;;
11588;SDS011;5850;51.360;12.362;2024-01-30T10:55:00;6.23;;;5.20;;
11588;SDS011;5850;51.360;12.362;2024-01-30T10:57:30;9.93;;;5.70;;
11588;SDS011;5850;51.360;12.362;2024-01-30T11:00:01;8.13;;;6.03;;
11588;SDS011;5850;51.360;12.362;2024-01-30T11:02:39;8.13;;;5.53;;
11588;SDS011;5850;51.360;12.362;2024-01-30T11:05:08;7.90;;;5.60;;
11588;SDS011;5850;51.360;12.362;2024-01-30T11:07:38;8.63;;;6.07;;
11588;SDS011;5850;51.360;12.362;2024-01-30T11:10:07;8.70;;;5.60;;
11588;SDS011;5850;51.360;12.362;2024-01-30T11:12:40;9.10;;;6.00;;
11588;SDS011;5850;51.360;12.362;2024-01-30T11:15:11;7.87;;;5.07;;
11588;SDS011;5850;51.360;12.362;2024-01-30T11:20:27;7.07;;;5.53;;
11588;SDS011;5850;51.360;12.362;2024-01-30T11:22:58;7.23;;;5.53;;
11588;SDS011;5850;51.360;12.362;2024-01-30T11:25:28;6.03;;;5.33;;
11588;SDS011;5850;51.360;12.362;2024-01-30T11:27:56;7.77;;;6.10;;
11588;SDS011;5850;51.360;12.362;2024-01-30T11:30:24;6.93;;;5.67;;
11588;SDS011;5850;51.360;12.362;2024-01-30T11:33:00;8.37;;;5.77;;
11588;SDS011;5850;51.360;12.362;2024-01-30T11:35:36;7.03;;;5.87;;
11588;SDS011;5850;51.360;12.362;2024-01-30T11:38:13;8.50;;;5.63;;
11588;SDS011;5850;51.360;12.362;2024-01-30T11:40:41;8.33;;;6.00;;
11588;SDS011;5850;51.360;12.362;2024-01-30T11:43:11;6.23;;;5.60;;
11588;SDS011;5850;51.360;12.362;2024-01-30T11:45:39;7.40;;;5.50;;
11588;SDS011;5850;51.360;12.362;2024-01-30T11:48:11;8.50;;;5.60;;
11588;SDS011;5850;51.360;12.362;2024-01-30T11:50:40;7.53;;;5.30;;
11588;SDS011;5850;51.360;12.362;2024-01-30T11:53:08;8.50;;;6.07;;
11588;SDS011;5850;51.360;12.362;2024-01-30T11:55:36;11.07;;;6.50;;
11588;SDS011;5850;51.360;12.362;2024-01-30T11:58:05;9.33;;;6.37;;
11588;SDS011;5850;51.360;12.362;2024-01-30T12:00:33;12.10;;;6.37;;
11588;SDS011;5850;51.360;12.362;2024-01-30T12:03:02;10.73;;;6.10;;
11588;SDS011;5850;51.360;12.362;2024-01-30T12:05:32;7.10;;;5.70;;
11588;SDS011;5850;51.360;12.362;2024-01-30T12:08:00;9.77;;;6.37;;
11588;SDS011;5850;51.360;12.362;2024-01-30T12:10:29;9.03;;;6.37;;
11588;SDS011;5850;51.360;12.362;2024-01-30T12:12:58;7.10;;;5.43;;
11588;SDS011;5850;51.360;12.362;2024-01-30T12:15:26;9.93;;;6.00;;
11588;SDS011;5850;51.360;12.362;2024-01-30T12:18:03;6.70;;;5.80;;
11588;SDS011;5850;51.360;12.362;2024-01-30T12:20:33;10.20;;;6.20;;
11588;SDS011;5850;51.360;12.362;2024-01-30T12:23:02;8.40;;;6.10;;
11588;SDS011;5850;51.360;12.362;2024-01-30T12:28:33;8.63;;;6.23;;
11588;SDS011;5850;51.360;12.362;2024-01-30T12:31:02;10.40;;;5.80;;
11588;SDS011;5850;51.360;12.362;2024-01-30T12:33:30;8.27;;;5.50;;
11588;SDS011;5850;51.360;12.362;2024-01-30T12:36:02;17.27;;;7.80;;
11588;SDS011;5850;51.360;12.362;2024-01-30T12:38:31;7.73;;;5.57;;
11588;SDS011;5850;51.360;12.362;2024-01-30T12:40:59;8.90;;;5.60;;
11588;SDS011;5850;51.360;12.362;2024-01-30T12:43:28;6.60;;;5.13;;
11588;SDS011;5850;51.360;12.362;2024-01-30T12:46:04;8.87;;;6.73;;
11588;SDS011;5850;51.360;12.362;2024-01-30T12:48:33;7.60;;;6.10;;
11588;SDS011;5850;51.360;12.362;2024-01-30T12:51:01;9.33;;;5.40;;
11588;SDS011;5850;51.360;12.362;2024-01-30T12:53:30;9.43;;;5.00;;
11588;SDS011;5850;51.360;12.362;2024-01-30T12:55:59;5.77;;;4.43;;
11588;SDS011;5850;51.360;12.362;2024-01-30T12:58:27;9.13;;;6.33;;
11588;SDS011;5850;51.360;12.362;2024-01-30T13:00:55;6.60;;;4.67;;
11588;SDS011;5850;51.360;12.362;2024-01-30T13:03:24;7.10;;;5.07;;
11588;SDS011;5850;51.360;12.362;2024-01-30T13:05:52;7.87;;;5.73;;
11588;SDS011;5850;51.360;12.362;2024-01-30T13:08:21;6.60;;;5.07;;
11588;SDS011;5850;51.360;12.362;2024-01-30T13:10:49;6.67;;;4.40;;
11588;SDS011;5850;51.360;12.362;2024-01-30T13:13:17;7.17;;;4.43;;
11588;SDS011;5850;51.360;12.362;2024-01-30T13:15:47;9.47;;;5.10;;
11588;SDS011;5850;51.360;12.362;2024-01-30T13:18:15;7.43;;;5.10;;
11588;SDS011;5850;51.360;12.362;2024-01-30T13:20:43;5.97;;;5.07;;
11588;SDS011;5850;51.360;12.362;2024-01-30T13:23:11;7.60;;;5.53;;
11588;SDS011;5850;51.360;12.362;2024-01-30T13:25:39;8.43;;;5.17;;
11588;SDS011;5850;51.360;12.362;2024-01-30T13:28:08;6.93;;;4.93;;
11588;SDS011;5850;51.360;12.362;2024-01-30T13:30:36;6.33;;;4.90;;
11588;SDS011;5850;51.360;12.362;2024-01-30T13:33:04;6.50;;;5.50;;
11588;SDS011;5850;51.360;12.362;2024-01-30T13:35:32;5.70;;;4.37;;
11588;SDS011;5850;51.360;12.362;2024-01-30T13:38:01;8.07;;;5.37;;
11588;SDS011;5850;51.360;12.362;2024-01-30T13:40:30;6.53;;;5.23;;
11588;SDS011;5850;51.360;12.362;2024-01-30T13:42:58;12.43;;;5.90;;
11588;SDS011;5850;51.360;12.362;2024-01-30T13:45:27;7.40;;;6.10;;
11588;SDS011;5850;51.360;12.362;2024-01-30T13:47:55;6.20;;;5.43;;
11588;SDS011;5850;51.360;12.362;2024-01-30T13:50:24;8.03;;;5.67;;
11588;SDS011;5850;51.360;12.362;2024-01-30T13:52:52;7.90;;;5.93;;
11588;SDS011;5850;51.360;12.362;2024-01-30T13:55:20;6.93;;;5.70;;
11588;SDS011;5850;51.360;12.362;2024-01-30T13:57:49;6.13;;;5.50;;
11588;SDS011;5850;51.360;12.362;2024-01-30T14:00:18;6.60;;;5.63;;
11588;SDS011;5850;51.360;12.362;2024-01-30T14:02:48;8.83;;;5.87;;
11588;SDS011;5850;51.360;12.362;2024-01-30T14:05:16;9.67;;;6.23;;
11588;SDS011;5850;51.360;12.362;2024-01-30T14:07:45;8.43;;;5.87;;
11588;SDS011;5850;51.360;12.362;2024-01-30T14:10:13;7.17;;;5.57;;
11588;SDS011;5850;51.360;12.362;2024-01-30T14:12:42;10.83;;;6.33;;
11588;SDS011;5850;51.360;12.362;2024-01-30T14:15:11;7.27;;;5.43;;
11588;SDS011;5850;51.360;12.362;2024-01-30T14:17:53;9.53;;;5.77;;
11588;SDS011;5850;51.360;12.362;2024-01-30T14:20:22;6.97;;;5.90;;
11588;SDS011;5850;51.360;12.362;2024-01-30T14:22:51;8.17;;;6.20;;
11588;SDS011;5850;51.360;12.362;2024-01-30T14:25:19;7.27;;;5.57;;
11588;SDS011;5850;51.360;12.362;2024-01-30T14:27:47;8.80;;;6.13;;
11588;SDS011;5850;51.360;12.362;2024-01-30T14:30:16;6.33;;;5.40;;
11588;SDS011;5850;51.360;12.362;2024-01-30T14:32:44;8.07;;;5.77;;
11588;SDS011;5850;51.360;12.362;2024-01-30T14:35:13;8.13;;;5.77;;
11588;SDS011;5850;51.360;12.362;2024-01-30T14:37:41;7.63;;;5.53;;
11588;SDS011;5850;51.360;12.362;2024-01-30T14:40:09;9.27;;;6.57;;
11588;SDS011;5850;51.360;12.362;2024-01-30T14:42:38;9.27;;;6.83;;
11588;SDS011;5850;51.360;12.362;2024-01-30T14:45:06;9.00;;;6.00;;
11588;SDS011;5850;51.360;12.362;2024-01-30T14:47:35;7.43;;;5.90;;
11588;SDS011;5850;51.360;12.362;2024-01-30T14:50:04;8.33;;;5.57;;
11588;SDS011;5850;51.360;12.362;2024-01-30T14:52:34;10.57;;;5.77;;
11588;SDS011;5850;51.360;12.362;2024-01-30T14:55:04;9.43;;;5.97;;
11588;SDS011;5850;51.360;12.362;2024-01-30T14:57:32;9.63;;;5.77;;
11588;SDS011;5850;51.360;12.362;2024-01-30T15:00:01;7.07;;;5.37;;
11588;SDS011;5850;51.360;12.362;2024-01-30T15:02:30;7.20;;;5.70;;
11588;SDS011;5850;51.360;12.362;2024-01-30T15:04:58;7.50;;;5.97;;